»·PEaware :: N8979T KSBA-KBUR

N8979T :: KSBA-KBUR

FLIGHT INFORMATION

Flight Status: Arrived
Operator: Privately registered:
United States
More flights under this callsign
Pilot: Brett J. (1348)
Aircraft: PIPER PA-18 SUPER CUB
(PA18)
More flights by this aircraft type
Origin: KSBA Santa Barbara Mun
United States
Destination: KBUR Bob Hope-Burbank
United States
More flights between these airports :: More routes between these airports
Route:
File this flight plan on PilotEdge
Remarks: CAT-8
Altitude:
(Current/Filed)
7,500ft
Speed:
(Current/Filed)
120kts
Departed: 05-Feb-19 09:35 PM
Arrived: 05-Feb-19 10:19 PM
Distance/Time
Traveled:
75nm/0:44
Distance/Time
To Go:
Arrived

Flight Plot

Page will automatically refresh every two minutes.


Map Options




Map Legend


Flown Route
Filed Route
Departure Airport
Arrival Airport
Navaid (VOR, NDB)
Fix

Horizontal Profiles

Position Reports

Time Latitude Longitude Heading Altitude Ground
Speed
05-Feb-19 21:23 34.422672 -119.835597 341 15ft 0kts
05-Feb-19 21:24 34.422672 -119.835597 340 15ft 0kts
05-Feb-19 21:25 34.422672 -119.835597 340 15ft 0kts
05-Feb-19 21:26 34.422672 -119.835597 340 15ft 0kts
05-Feb-19 21:27 34.422672 -119.835597 340 15ft 0kts
05-Feb-19 21:28 34.422672 -119.835597 340 15ft 0kts
05-Feb-19 21:29 34.422791 -119.835628 3 14ft 6kts
05-Feb-19 21:30 34.423789 -119.837446 348 13ft 14kts
05-Feb-19 21:31 34.426743 -119.837314 87 13ft 13kts
05-Feb-19 21:32 34.427144 -119.835216 21 12ft 0kts
05-Feb-19 21:33 34.427547 -119.835163 348 12ft 11kts
05-Feb-19 21:34 34.427952 -119.855328 268 716ft 92kts
05-Feb-19 21:35 34.430517 -119.887987 333 1337ft 102kts
05-Feb-19 21:36 34.440397 -119.859487 84 1987ft 105kts
05-Feb-19 21:37 34.436703 -119.823788 114 2493ft 111kts
05-Feb-19 21:38 34.427376 -119.787789 107 2945ft 108kts
05-Feb-19 21:39 34.422523 -119.751233 93 3291ft 112kts
05-Feb-19 21:40 34.419916 -119.713364 93 3580ft 113kts
05-Feb-19 21:41 34.415871 -119.675893 95 4029ft 109kts
05-Feb-19 21:42 34.412072 -119.639590 89 4640ft 104kts
05-Feb-19 21:43 34.409214 -119.603908 91 5282ft 108kts
05-Feb-19 21:44 34.404500 -119.566986 95 6015ft 114kts
05-Feb-19 21:45 34.398912 -119.529093 96 6430ft 113kts
05-Feb-19 21:46 34.391534 -119.491095 102 6702ft 120kts
05-Feb-19 21:47 34.383498 -119.452168 98 7034ft 114kts
05-Feb-19 21:48 34.373062 -119.415575 110 7415ft 122kts
05-Feb-19 21:49 34.357785 -119.376177 108 7401ft 133kts
05-Feb-19 21:50 34.346575 -119.335799 103 7434ft 129kts
05-Feb-19 21:51 34.337685 -119.293477 99 7452ft 132kts
05-Feb-19 21:52 34.332078 -119.249892 92 7428ft 128kts
05-Feb-19 21:53 34.327658 -119.207026 91 7459ft 128kts
05-Feb-19 21:54 34.325304 -119.164063 87 7482ft 128kts
05-Feb-19 21:55 34.319136 -119.120687 99 7418ft 133kts
05-Feb-19 21:56 34.315841 -119.077156 84 7428ft 122kts
05-Feb-19 21:57 34.312601 -119.033716 91 7329ft 133kts
05-Feb-19 21:58 34.307392 -118.991003 100 7398ft 131kts
05-Feb-19 21:59 34.298874 -118.947531 100 7304ft 134kts
05-Feb-19 22:00 34.287072 -118.905341 102 7186ft 141kts
05-Feb-19 22:01 34.272374 -118.858963 113 6382ft 140kts
05-Feb-19 22:02 34.257514 -118.821308 110 6797ft 113kts
05-Feb-19 22:03 34.248462 -118.784968 94 7223ft 117kts
05-Feb-19 22:04 34.241596 -118.745113 109 7380ft 132kts
05-Feb-19 22:05 34.225979 -118.704637 119 7230ft 136kts
05-Feb-19 22:06 34.211383 -118.668418 113 5706ft 111kts
05-Feb-19 22:07 34.202859 -118.636661 83 4537ft 89kts
05-Feb-19 22:08 34.203972 -118.607009 87 3625ft 87kts
05-Feb-19 22:09 34.204520 -118.577969 89 3071ft 83kts
05-Feb-19 22:10 34.203753 -118.549086 91 2810ft 87kts
05-Feb-19 22:11 34.202794 -118.519599 87 3020ft 95kts
05-Feb-19 22:12 34.201796 -118.487288 97 3063ft 96kts
05-Feb-19 22:13 34.198325 -118.456277 89 2565ft 80kts
05-Feb-19 22:14 34.198046 -118.427939 94 2031ft 85kts
05-Feb-19 22:15 34.198143 -118.403475 89 1382ft 64kts
05-Feb-19 22:16 34.198049 -118.382515 88 985ft 54kts
05-Feb-19 22:17 34.197867 -118.364686 94 723ft 41kts
05-Feb-19 22:18 34.197670 -118.357792 209 713ft 10kts

Navigation Log

Ident Type
Flight plan parsing failed, navigation log unavailable